EGMONT CHANNEL ENTRANCE, FL - 214

GPS Positions

GPS Time
Latitude
Degrees
Longitude
Degrees
Gap
 
Distance
NM
Speed
Knots
Direction
Degrees
Feb 22, 02:51 27.59064° -82.93075° 30 min 0.02 0.00
270°
Feb 22, 02:21 27.59064° -82.93070° 30 min 0.02 0.00
213°
Feb 22, 01:51 27.59066° -82.93069° 30 min 0.02 0.01
241°
Feb 22, 01:21 27.59068° -82.93064° 30 min 0.02 0.00
212°
Feb 22, 00:51 27.59072° -82.93062° 30 min 0.02 0.00
Feb 22, 00:21 27.59070° -82.93062° 30 min 0.02 0.00
Feb 21, 23:51 27.59070° -82.93062° 30 min 0.02 0.00
180°
Feb 21, 23:21 27.59072° -82.93062° 30 min 0.02 0.01
63°
Feb 21, 22:51 27.59070° -82.93066° 30 min 0.02 0.00
Feb 21, 22:21 27.59069° -82.93066° 30 min 0.02 0.00
Feb 21, 21:51 27.59067° -82.93066° 30 min 0.02 0.00
71°
Feb 21, 21:21 27.59066° -82.93070° 30 min 0.02 0.00
90°
Feb 21, 20:51 27.59066° -82.93073° 30 min 0.02 0.00
90°
Feb 21, 20:21 27.59066° -82.93075° 30 min 0.02 0.00
180°
Feb 21, 19:51 27.59067° -82.93075° 30 min 0.02 0.00
61°
Feb 21, 19:21 27.59066° -82.93077° 30 min 0.02 0.00
180°
Feb 21, 18:51 27.59067° -82.93077° 30 min 0.02 0.00
Feb 21, 18:21 27.59067° -82.93077° 30 min 0.02 0.00
180°
Feb 21, 17:51 27.59069° -82.93077° 30 min 0.02 0.00
65°
Feb 21, 17:21 27.59068° -82.93079° 30 min 0.02 0.01
257°
Feb 21, 16:51 27.59069° -82.93075° 30 min 0.02 0.00
119°
Feb 21, 16:21 27.59070° -82.93077° 30 min 0.02 0.01
117°
Feb 21, 15:51 27.59072° -82.93082° 30 min 0.02 0.00
270°
Feb 21, 15:21 27.59072° -82.93077° 30 min 0.02 0.01
44°
Feb 21, 14:51 27.59068° -82.93082° 30 min 0.02 0.00
157°
Feb 21, 14:21 27.59072° -82.93083° 30 min 0.02 0.00
Feb 21, 13:51 27.59072° -82.93083° 30 min 0.02 0.01
277°
Feb 21, 13:21 27.59070° -82.93073° 30 min 0.02 0.01
97°
Feb 21, 12:51 27.59072° -82.93083° 30 min 0.02 0.02
94°
Feb 21, 12:21 27.59072° -82.93098° 30 min 0.02 0.01
90°
Feb 21, 11:51 27.59072° -82.93105° 30 min 0.02 0.01
314°
Feb 21, 11:21 27.59069° -82.93101° 30 min 0.02 0.00
90°
Feb 21, 10:51 27.59069° -82.93103° 30 min 0.02 0.00
90°
Feb 21, 10:21 27.59069° -82.93105° 30 min 0.02 0.00
119°
Feb 21, 09:51 27.59070° -82.93107° 30 min 0.02 0.00
Feb 21, 09:21 27.59070° -82.93107° 30 min 0.02 0.00
90°
Feb 21, 08:51 27.59070° -82.93109° 30 min 0.02 0.00
328°
Feb 21, 08:21 27.59067° -82.93107° 30 min 0.02 0.00
316°
Feb 21, 07:51 27.59065° -82.93105° 30 min 0.02 0.01
301°
Feb 21, 07:21 27.59062° -82.93098° 30 min 0.02 0.00
Feb 21, 06:51 27.59062° -82.93098° 30 min 0.02 0.01
286°
Feb 21, 06:21 27.59061° -82.93094° 30 min 0.02 0.00
305°
Feb 21, 05:51 27.59060° -82.93092° 30 min 0.02 0.01
257°
Feb 21, 05:21 27.59061° -82.93088° 30 min 0.02 0.00
270°
Feb 21, 04:51 27.59061° -82.93085° 30 min 0.02 0.00
286°
Feb 21, 04:21 27.59060° -82.93082° 30 min 0.02 0.00
224°
Feb 21, 03:51 27.59062° -82.93079° 30 min 0.02 0.00
270°
Feb 21, 03:21 27.59062° -82.93075° 30 min 0.02 0.00
224°
Feb 21, 02:51 27.59064° -82.93073° 30 min 0.02 0.00
270°
Feb 21, 02:21 27.59064° -82.93070° 30 min 0.02 0.00
180°
Feb 21, 01:51 27.59065° -82.93070° 30 min 0.02 0.00
238°
Feb 21, 01:21 27.59067° -82.93066° 30 min 0.02 0.00
224°
Feb 21, 00:51 27.59069° -82.93064° 30 min 0.02 0.00
Feb 21, 00:21 27.59069° -82.93064° 30 min 0.02 0.00
180°
Feb 20, 23:51 27.59070° -82.93064° 30 min 0.02 0.00
90°
Feb 20, 23:21 27.59070° -82.93066° 30 min 0.02 0.01
229°
Feb 20, 22:51 27.59077° -82.93058° 30 min 0.02 0.00
299°
Feb 20, 22:21 27.59076° -82.93056° 30 min 0.02 0.00
58°
Feb 20, 21:51 27.59074° -82.93060° 30 min 0.02 0.01
63°
Feb 20, 21:21 27.59072° -82.93064° 30 min 0.02 0.00
Feb 20, 20:51 27.59069° -82.93064° 30 min 0.02 0.00
180°
Feb 20, 20:21 27.59070° -82.93064° 30 min 0.02 0.01
78°
Feb 20, 19:51 27.59069° -82.93070° 30 min 0.02 0.01
63°
Feb 20, 19:21 27.59067° -82.93075° 30 min 0.02 0.00
90°
Feb 20, 18:51 27.59067° -82.93077° 30 min 0.02 0.00
180°
Feb 20, 18:21 27.59069° -82.93077° 30 min 0.02 0.01
63°
Feb 20, 17:51 27.59067° -82.93082° 30 min 0.02 0.00
157°
Feb 20, 17:21 27.59070° -82.93083° 30 min 0.02 0.00
238°
Feb 20, 16:51 27.59072° -82.93079° 30 min 0.02 0.00
222°
Feb 20, 16:21 27.59075° -82.93077° 30 min 0.02 0.00
Feb 20, 15:51 27.59075° -82.93077° 30 min 0.02 0.01
103°
Feb 20, 15:21 27.59076° -82.93082° 30 min 0.01 0.00
212°
Feb 20, 14:51 27.59079° -82.93079° 30 min 0.01 0.00
119°
Feb 20, 14:21 27.59080° -82.93082° 30 min 0.01 0.01
128°
Feb 20, 13:51 27.59084° -82.93088° 30 min 0.01 0.01
239°
Feb 20, 13:21 27.59088° -82.93082° 30 min 0.01 0.01
90°
Feb 20, 12:51 27.59088° -82.93088° 30 min 0.01 0.01
102°
Feb 20, 12:21 27.59090° -82.93098° 30 min 0.01 0.01
106°
Feb 20, 11:51 27.59091° -82.93103° 30 min 0.01 0.00
180°
Feb 20, 11:21 27.59094° -82.93103° 30 min 0.01 0.02
339°
Feb 20, 10:51 27.59078° -82.93096° 30 min 0.01 0.01
63°
Feb 20, 10:21 27.59076° -82.93101° 30 min 0.02 0.00
Feb 20, 09:51 27.59072° -82.93101° 30 min 0.02 0.00
316°
Feb 20, 09:21 27.59070° -82.93098° 30 min 0.02 0.00
180°
Feb 20, 08:51 27.59072° -82.93098° 30 min 0.02 0.01
100°
Feb 20, 08:21 27.59072° -82.93105° 30 min 0.02 0.00
Feb 20, 07:51 27.59072° -82.93105° 30 min 0.02 0.01
301°
Feb 20, 07:21 27.59068° -82.93098° 30 min 0.02 0.00
61°
Feb 20, 06:51 27.59067° -82.93101° 30 min 0.02 0.01
298°
Feb 20, 06:21 27.59064° -82.93094° 30 min 0.02 0.00
180°
Feb 20, 05:51 27.59065° -82.93094° 30 min 0.02 0.00
Feb 20, 05:21 27.59064° -82.93094° 30 min 0.02 0.00
270°
Feb 20, 04:51 27.59064° -82.93090° 30 min 0.02 0.01
283°
Feb 20, 04:21 27.59063° -82.93085° 30 min 0.02 0.01
270°
Feb 20, 03:51 27.59063° -82.93075° 30 min 0.02 0.01
74°
Feb 20, 03:21 27.59062° -82.93079° 30 min 0.02 0.01
259°
Feb 20, 02:51 27.59063° -82.93073° 30 min 0.02 0.00
254°
Feb 20, 02:21 27.59064° -82.93069° 30 min 0.02 0.01
243°
Feb 20, 01:51 27.59066° -82.93064° 30 min 0.02 0.00
222°
Feb 20, 01:21 27.59068° -82.93062° 30 min 0.02 0.00
Feb 20, 00:51 27.59068° -82.93062° 30 min 0.02 0.01
61°
Feb 20, 00:21 27.59066° -82.93066° 30 min 0.02 0.01
241°
Feb 19, 23:51 27.59068° -82.93062° 30 min 0.02 0.00
Feb 19, 23:21 27.59067° -82.93062° 30 min 0.02 0.00
224°
Feb 19, 22:51 27.59069° -82.93060° 30 min 0.02 0.01
26°
Feb 19, 22:21 27.59065° -82.93062° 30 min 0.02 0.01
74°
Feb 19, 21:51 27.59064° -82.93066° 30 min 0.02 0.00
295°
Feb 19, 21:21 27.59063° -82.93064° 30 min 0.02 0.00
214°
Feb 19, 20:51 27.59066° -82.93062° 30 min 0.02 0.00
Feb 19, 20:21 27.59065° -82.93062° 30 min 0.02 0.01
103°
Feb 19, 19:51 27.59066° -82.93066° 30 min 0.02 0.00
Feb 19, 19:21 27.59066° -82.93066° 30 min 0.02 0.00
Feb 19, 18:51 27.59066° -82.93066° 30 min 0.02 0.00
44°
Feb 19, 18:21 27.59064° -82.93069° 30 min 0.02 0.00
Feb 19, 17:51 27.59064° -82.93069° 30 min 0.02 0.00
224°
Feb 19, 17:21 27.59066° -82.93066° 30 min 0.02 0.00
316°
Feb 19, 16:51 27.59064° -82.93064° 30 min 0.02 0.00
180°
Feb 19, 16:21 27.59066° -82.93064° 30 min 0.02 0.00
Feb 19, 15:51 27.59065° -82.93064° 30 min 0.02 0.00
Feb 19, 15:21 27.59065° -82.93064° 30 min 0.02 0.00
180°
Feb 19, 14:51 27.59066° -82.93064° 30 min 0.02 0.00
241°
Feb 19, 14:21 27.59067° -82.93062° 30 min 0.02 0.00
Feb 19, 13:51 27.59067° -82.93062° 30 min 0.02 0.00
224°
Feb 19, 13:21 27.59069° -82.93060° 30 min 0.02 0.01
55°
Feb 19, 12:51 27.59065° -82.93066° 30 min 0.02 0.00
Feb 19, 12:21 27.59065° -82.93066° 30 min 0.02 0.00
Feb 19, 11:51 27.59065° -82.93066° 30 min 0.02 0.00
Feb 19, 11:21 27.59065° -82.93066° 30 min 0.02 0.00
90°
Feb 19, 10:51 27.59065° -82.93069° 30 min 0.02 0.00
245°
Feb 19, 10:21 27.59066° -82.93066° 30 min 0.02 0.01
69°
Feb 19, 09:51 27.59064° -82.93073° 30 min 0.02 0.00
270°
Feb 19, 09:21 27.59064° -82.93070° 30 min 0.02 0.01
71°
Feb 19, 08:51 27.59062° -82.93077° 30 min 0.02 0.01
97°
Feb 19, 08:21 27.59063° -82.93088° 30 min 0.02 0.00
299°
Feb 19, 07:51 27.59062° -82.93085° 30 min 0.02 0.01
90°
Feb 19, 07:21 27.59062° -82.93092° 30 min 0.02 0.00
270°
Feb 19, 06:51 27.59062° -82.93090° 30 min 0.02 0.00
109°
Feb 19, 06:21 27.59063° -82.93094° 30 min 0.02 0.00
304°
Feb 19, 05:51 27.59061° -82.93090° 30 min 0.02 0.01
102°
Feb 19, 05:21 27.59062° -82.93096° 30 min 0.02 0.00
270°
Feb 19, 04:51 27.59062° -82.93094° 30 min 0.02 0.00
310°
Feb 19, 04:21 27.59061° -82.93092° 30 min 0.02 0.01
90°
Feb 19, 03:51 27.59061° -82.93098° 30 min 0.02 0.00
180°